createdAt,value
2022-08-03T00:01:31.199Z,101177.03
2022-08-03T00:03:57.587Z,101178.56
2022-08-03T00:06:24.047Z,101177.13
2022-08-03T00:08:50.462Z,101182.44
2022-08-03T00:11:16.894Z,101168.28
2022-08-03T00:13:43.419Z,101178.66
2022-08-03T00:16:10.728Z,101172.56
2022-08-03T00:18:37.627Z,101173.63
2022-08-03T00:21:04.530Z,101174.97
2022-08-03T00:23:51.632Z,101178.50
2022-08-03T00:26:17.538Z,101167.69
2022-08-03T00:28:43.938Z,101167.66
2022-08-03T00:31:13.500Z,101165.72
2022-08-03T00:33:59.643Z,101164.66
2022-08-03T00:36:27.668Z,101160.03
2022-08-03T00:38:54.192Z,101159.16
2022-08-03T00:41:20.875Z,101166.19
2022-08-03T00:43:47.710Z,101154.75
2022-08-03T00:46:17.671Z,101162.59
2022-08-03T00:48:49.246Z,101162.19
2022-08-03T00:51:15.908Z,101162.59
2022-08-03T00:53:43.362Z,101160.28
2022-08-03T00:56:13.608Z,101158.84
2022-08-03T00:58:40.123Z,101154.41
2022-08-03T01:01:07.262Z,101152.81
2022-08-03T01:03:33.896Z,101158.44
2022-08-03T01:06:15.735Z,101158.44
2022-08-03T01:09:06.280Z,101154.59
2022-08-03T01:12:01.205Z,101148.13
2022-08-03T01:14:44.271Z,101138.44
2022-08-03T01:17:23.082Z,101146.03
2022-08-03T01:20:12.134Z,101142.44
2022-08-03T01:23:12.617Z,101149.16
2022-08-03T01:25:54.698Z,101148.56
2022-08-03T01:28:39.353Z,101145.44
2022-08-03T01:31:08.725Z,101146.91
2022-08-03T01:33:44.220Z,101148.56
2022-08-03T01:36:14.549Z,101148.97
2022-08-03T01:38:50.043Z,101139.28
2022-08-03T01:41:22.729Z,101139.34
2022-08-03T01:44:26.485Z,101139.28
2022-08-03T01:46:40.418Z,101139.53
2022-08-03T01:49:15.013Z,101145.88
2022-08-03T01:52:02.804Z,101145.47
2022-08-03T01:54:30.966Z,101145.84
2022-08-03T01:56:59.553Z,101134.88
2022-08-03T01:59:28.914Z,101133.00
2022-08-03T02:02:29.075Z,101135.94
2022-08-03T02:04:46.901Z,101137.69
2022-08-03T02:07:14.959Z,101135.31
2022-08-03T02:09:45.053Z,101137.91
2022-08-03T02:12:13.922Z,101135.56
2022-08-03T02:14:43.257Z,101144.00
2022-08-03T02:17:11.123Z,101139.81
2022-08-03T02:19:38.742Z,101132.63
2022-08-03T02:22:08.372Z,101131.63
2022-08-03T02:24:34.831Z,101130.19
2022-08-03T02:27:04.005Z,101131.66
2022-08-03T02:29:40.070Z,101130.81
2022-08-03T02:32:10.620Z,101128.72
2022-08-03T02:34:38.060Z,101135.44
2022-08-03T02:37:06.010Z,101129.97
2022-08-03T02:39:35.412Z,101135.84
2022-08-03T02:42:05.481Z,101140.69
2022-08-03T02:44:34.123Z,101133.94
2022-08-03T02:47:09.409Z,101136.47
2022-08-03T02:49:50.556Z,101139.69
2022-08-03T02:52:23.966Z,101133.94
2022-08-03T02:54:54.867Z,101124.72
2022-08-03T02:57:22.828Z,101125.94
2022-08-03T02:59:51.418Z,101123.63
2022-08-03T03:02:18.430Z,101124.25
2022-08-03T03:04:58.869Z,101117.09
2022-08-03T03:07:41.034Z,101116.50
2022-08-03T03:10:21.278Z,101112.06
2022-08-03T03:12:50.192Z,101116.72
2022-08-03T03:15:16.722Z,101110.81
2022-08-03T03:17:44.161Z,101103.41
2022-08-03T03:20:11.974Z,101109.28
2022-08-03T03:22:39.997Z,101111.00
2022-08-03T03:25:07.452Z,101108.69
2022-08-03T03:27:34.135Z,101108.28
2022-08-03T03:30:00.764Z,101107.22
2022-08-03T03:32:28.835Z,101105.09
2022-08-03T03:34:56.654Z,101107.41
2022-08-03T03:37:23.060Z,101110.59
2022-08-03T03:39:49.563Z,101104.69
2022-08-03T03:42:16.435Z,101109.09
2022-08-03T03:44:43.196Z,101106.38
2022-08-03T03:47:09.705Z,101105.94
2022-08-03T03:49:37.796Z,101110.38
2022-08-03T03:52:04.528Z,101109.53
2022-08-03T03:54:44.495Z,101113.97
2022-08-03T03:57:12.907Z,101104.91
2022-08-03T03:59:41.591Z,101117.56
2022-08-03T04:02:09.771Z,101108.72
2022-08-03T04:04:55.851Z,101112.53
2022-08-03T04:07:43.419Z,101119.66
2022-08-03T04:10:37.068Z,101108.28
2022-08-03T04:13:09.882Z,101109.13
2022-08-03T04:15:39.412Z,101114.81
2022-08-03T04:18:09.780Z,101121.34
2022-08-03T04:20:38.983Z,101123.88
2022-08-03T04:23:13.694Z,101118.19
2022-08-03T04:25:43.850Z,101114.41
2022-08-03T04:28:29.549Z,101115.66
2022-08-03T04:30:57.741Z,101117.78
2022-08-03T04:33:29.466Z,101118.81
2022-08-03T04:36:01.579Z,101123.47
2022-08-03T04:38:32.788Z,101127.88
2022-08-03T04:41:00.897Z,101135.03
2022-08-03T04:43:28.639Z,101127.88
2022-08-03T04:45:56.784Z,101132.50
2022-08-03T04:48:23.298Z,101128.72
2022-08-03T04:50:49.934Z,101124.06
2022-08-03T04:53:17.788Z,101125.34
2022-08-03T04:55:44.544Z,101129.34
2022-08-03T04:58:10.958Z,101131.66
2022-08-03T05:00:37.377Z,101136.50
2022-08-03T05:03:03.993Z,101133.34
2022-08-03T05:05:49.780Z,101137.13
2022-08-03T05:08:17.110Z,101141.97
2022-08-03T05:10:47.584Z,101134.59
2022-08-03T05:13:14.571Z,101141.75
2022-08-03T05:15:42.830Z,101138.41
2022-08-03T05:18:13.915Z,101144.94
2022-08-03T05:20:41.141Z,101148.13
2022-08-03T05:23:07.590Z,101149.16
2022-08-03T05:25:34.006Z,101152.09
2022-08-03T05:28:00.427Z,101154.84
2022-08-03T05:30:33.872Z,101152.09
2022-08-03T05:33:01.881Z,101146.81
2022-08-03T05:36:02.362Z,101149.75
2022-08-03T05:38:20.842Z,101155.50
2022-08-03T05:40:57.325Z,101157.78
2022-08-03T05:43:40.757Z,101149.75
2022-08-03T05:46:11.885Z,101154.34
2022-08-03T05:48:39.177Z,101150.56
2022-08-03T05:51:07.580Z,101156.28
2022-08-03T05:53:34.419Z,101155.22
2022-08-03T05:56:03.605Z,101156.44
2022-08-03T05:58:41.871Z,101162.53
2022-08-03T06:01:08.445Z,101158.94
2022-08-03T06:03:34.891Z,101156.16
2022-08-03T06:06:01.502Z,101146.69
2022-08-03T06:08:27.934Z,101147.94
2022-08-03T06:10:54.312Z,101156.59
2022-08-03T06:13:20.699Z,101156.78
2022-08-03T06:15:47.111Z,101161.16
2022-08-03T06:18:13.624Z,101169.88
2022-08-03T06:20:40.047Z,101163.72
2022-08-03T06:23:06.456Z,101161.19
2022-08-03T06:25:34.018Z,101159.69
2022-08-03T06:28:00.486Z,101170.84
2022-08-03T06:30:27.259Z,101169.34
2022-08-03T06:32:53.717Z,101170.84
2022-08-03T06:35:20.631Z,101166.63
2022-08-03T06:37:51.204Z,101170.09
2022-08-03T06:40:24.392Z,101166.38
2022-08-03T06:42:51.148Z,101163.31
2022-08-03T06:45:18.028Z,101173.28
2022-08-03T06:47:44.688Z,101171.31
2022-08-03T06:50:17.185Z,101170.44
2022-08-03T06:52:45.326Z,101165.00
2022-08-03T06:55:11.853Z,101178.91
2022-08-03T06:57:38.287Z,101170.19
2022-08-03T07:00:10.054Z,101165.00
2022-08-03T07:02:39.844Z,101165.44
2022-08-03T07:05:07.306Z,101169.47
2022-08-03T07:07:33.754Z,101180.94
2022-08-03T07:10:00.436Z,101173.28
2022-08-03T07:12:29.680Z,101173.75
2022-08-03T07:15:00.729Z,101163.28
2022-08-03T07:17:28.139Z,101178.38
2022-08-03T07:19:54.578Z,101184.31
2022-08-03T07:22:21.002Z,101174.19
2022-08-03T07:24:47.759Z,101181.25
2022-08-03T07:27:16.340Z,101183.88
2022-08-03T07:29:42.910Z,101186.66
2022-08-03T07:32:09.526Z,101185.09
2022-08-03T07:34:35.949Z,101183.56
2022-08-03T07:37:02.445Z,101192.41
2022-08-03T07:39:28.907Z,101184.28
2022-08-03T07:41:55.328Z,101191.41
2022-08-03T07:44:21.873Z,101191.25
2022-08-03T07:46:48.310Z,101191.59
2022-08-03T07:49:14.754Z,101185.47
2022-08-03T07:51:41.247Z,101181.94
2022-08-03T07:54:10.140Z,101183.28
2022-08-03T07:56:37.501Z,101186.94
2022-08-03T07:59:04.093Z,101185.53
2022-08-03T08:01:32.782Z,101181.59
2022-08-03T08:03:59.383Z,101183.94
2022-08-03T08:06:25.796Z,101182.84
2022-08-03T08:08:53.609Z,101178.97
2022-08-03T08:11:22.227Z,101192.81
2022-08-03T08:13:48.685Z,101176.03
2022-08-03T08:16:15.122Z,101180.22
2022-08-03T08:18:41.506Z,101178.25
2022-08-03T08:21:08.689Z,101177.66
2022-08-03T08:23:42.388Z,101180.66
2022-08-03T08:26:11.007Z,101182.88
2022-08-03T08:28:37.509Z,101178.09
2022-08-03T08:31:04.064Z,101180.78
2022-08-03T08:33:48.355Z,101177.06
2022-08-03T08:36:17.632Z,101181.00
2022-08-03T08:38:45.084Z,101173.44
2022-08-03T08:41:13.053Z,101178.19
2022-08-03T08:43:39.443Z,101181.19
2022-08-03T08:46:08.294Z,101176.44
2022-08-03T08:48:36.267Z,101177.25
2022-08-03T08:51:03.190Z,101171.94
2022-08-03T08:53:32.725Z,101184.34
2022-08-03T08:56:01.466Z,101183.09
2022-08-03T08:58:38.647Z,101188.69
2022-08-03T09:01:05.772Z,101187.22
2022-08-03T09:03:34.268Z,101189.13
2022-08-03T09:06:02.129Z,101188.59
2022-08-03T09:08:30.231Z,101174.31
2022-08-03T09:10:56.863Z,101175.22
2022-08-03T09:13:23.308Z,101180.34
2022-08-03T09:16:15.929Z,101180.31
2022-08-03T09:18:45.007Z,101178.25
2022-08-03T09:21:32.462Z,101179.34
2022-08-03T09:24:05.847Z,101185.78
2022-08-03T09:26:36.076Z,101176.94
2022-08-03T09:29:13.982Z,101176.00
2022-08-03T09:31:44.532Z,101174.56
2022-08-03T09:34:14.055Z,101181.47
2022-08-03T09:36:48.885Z,101179.16
2022-08-03T09:39:17.918Z,101170.06
2022-08-03T09:41:46.950Z,101179.91
2022-08-03T09:44:24.453Z,101182.91
2022-08-03T09:46:56.243Z,101184.13
2022-08-03T09:49:23.677Z,101178.06
2022-08-03T09:52:33.020Z,101170.72
2022-08-03T09:54:36.645Z,101173.09
2022-08-03T09:57:03.149Z,101181.50
2022-08-03T09:59:31.676Z,101173.78
2022-08-03T10:01:59.928Z,101175.75
2022-08-03T10:04:26.640Z,101182.13
2022-08-03T10:07:23.652Z,101192.13
2022-08-03T10:09:55.293Z,101182.75
2022-08-03T10:12:21.967Z,101190.28
2022-08-03T10:14:48.387Z,101183.53
2022-08-03T10:17:14.958Z,101190.91
2022-08-03T10:19:42.631Z,101186.00
2022-08-03T10:22:15.294Z,101182.28
2022-08-03T10:24:51.923Z,101181.13
2022-08-03T10:27:19.826Z,101186.06
2022-08-03T10:29:52.968Z,101176.19
2022-08-03T10:32:27.982Z,101172.75
2022-08-03T10:35:20.517Z,101169.88
2022-08-03T10:38:01.618Z,101168.59
2022-08-03T10:40:49.489Z,101159.28
2022-08-03T10:43:28.663Z,101158.22
2022-08-03T10:45:56.288Z,101159.25
2022-08-03T10:48:24.063Z,101164.19
2022-08-03T10:50:50.791Z,101159.75
2022-08-03T10:53:34.514Z,101147.84
2022-08-03T10:56:28.613Z,101144.00
2022-08-03T10:59:06.346Z,101144.91
2022-08-03T11:01:58.093Z,101142.84
2022-08-03T11:04:26.583Z,101145.91
2022-08-03T11:07:22.825Z,101146.28
2022-08-03T11:09:55.065Z,101145.34
2022-08-03T11:12:28.470Z,101138.13
2022-08-03T11:15:06.184Z,101139.09
2022-08-03T11:17:46.407Z,101131.50
2022-08-03T11:20:44.047Z,101140.34
2022-08-03T11:23:10.611Z,101144.38
2022-08-03T11:26:08.494Z,101142.09
2022-08-03T11:28:35.053Z,101147.91
2022-08-03T11:31:48.162Z,101144.78
2022-08-03T11:34:12.098Z,101141.34
2022-08-03T11:37:16.582Z,101143.34
2022-08-03T11:39:46.371Z,101138.38
2022-08-03T11:42:22.038Z,101137.94
2022-08-03T11:44:50.237Z,101143.63
2022-08-03T11:47:18.419Z,101147.63
2022-08-03T11:49:49.064Z,101140.31
2022-08-03T11:52:17.141Z,101143.91
2022-08-03T11:54:44.032Z,101145.78
2022-08-03T11:57:10.431Z,101143.03
2022-08-03T11:59:38.783Z,101139.59
2022-08-03T12:02:13.119Z,101128.97
2022-08-03T12:04:54.726Z,101136.13
2022-08-03T12:08:02.707Z,101140.56
2022-08-03T12:10:13.618Z,101145.91
2022-08-03T12:12:46.196Z,101136.59
2022-08-03T12:15:13.115Z,101137.84
2022-08-03T12:17:41.591Z,101132.66
2022-08-03T12:20:09.839Z,101131.97
2022-08-03T12:22:38.791Z,101137.84
2022-08-03T12:25:06.268Z,101123.91
2022-08-03T12:27:32.804Z,101130.53
2022-08-03T12:30:01.464Z,101130.13
2022-08-03T12:32:31.715Z,101128.97
2022-08-03T12:35:01.260Z,101130.53
2022-08-03T12:37:28.826Z,101135.88
2022-08-03T12:40:01.415Z,101121.78
2022-08-03T12:42:32.735Z,101124.53
2022-08-03T12:44:59.262Z,101126.84
2022-08-03T12:47:25.710Z,101137.44
2022-08-03T12:49:53.774Z,101138.16
2022-08-03T12:52:22.111Z,101136.38
2022-08-03T12:54:59.718Z,101135.91
2022-08-03T12:57:39.967Z,101132.44
2022-08-03T13:00:21.299Z,101152.44
2022-08-03T13:03:26.607Z,101138.72
2022-08-03T13:05:46.277Z,101142.41
2022-08-03T13:08:20.401Z,101130.00
2022-08-03T13:10:47.221Z,101133.47
2022-08-03T13:13:13.857Z,101138.56
2022-08-03T13:15:47.797Z,101139.66
2022-08-03T13:18:17.368Z,101137.47
2022-08-03T13:20:44.293Z,101142.06
2022-08-03T13:23:13.928Z,101130.41
2022-08-03T13:25:55.722Z,101136.75
2022-08-03T13:28:22.897Z,101128.28
2022-08-03T13:30:49.393Z,101133.09
2022-08-03T13:33:15.864Z,101124.91
2022-08-03T13:35:42.285Z,101139.78
2022-08-03T13:38:08.723Z,101133.88
2022-08-03T13:40:41.486Z,101123.78
2022-08-03T13:43:08.411Z,101124.66
2022-08-03T13:45:34.775Z,101120.91
2022-08-03T13:48:01.311Z,101118.50
2022-08-03T13:50:28.448Z,101123.88
2022-08-03T13:52:54.949Z,101127.97
2022-08-03T13:55:21.328Z,101129.28
2022-08-03T13:58:06.347Z,101126.13
2022-08-03T14:00:34.045Z,101135.22
2022-08-03T14:03:07.944Z,101132.91
2022-08-03T14:05:40.197Z,101127.38
2022-08-03T14:08:07.137Z,101121.75
2022-08-03T14:10:35.358Z,101119.34
2022-08-03T14:13:01.881Z,101120.25
2022-08-03T14:15:28.760Z,101112.22
2022-08-03T14:17:56.303Z,101113.72
2022-08-03T14:20:36.813Z,101122.31
2022-08-03T14:23:12.689Z,101111.22
2022-08-03T14:25:44.550Z,101115.88
2022-08-03T14:28:17.865Z,101107.41
2022-08-03T14:30:44.323Z,101110.88
2022-08-03T14:33:10.785Z,101103.31
2022-08-03T14:35:37.229Z,101095.25
2022-08-03T14:38:03.649Z,101096.50
2022-08-03T14:40:30.056Z,101098.38
2022-08-03T14:42:56.570Z,101089.38
2022-08-03T14:45:23.280Z,101094.22
2022-08-03T14:49:02.761Z,101093.34
2022-08-03T14:50:43.124Z,101084.97
2022-08-03T14:53:12.481Z,101087.44
2022-08-03T14:55:49.914Z,101082.50
2022-08-03T14:58:19.584Z,101080.75
2022-08-03T15:00:47.338Z,101082.28
2022-08-03T15:03:15.885Z,101082.88
2022-08-03T15:05:43.643Z,101077.91
2022-08-03T15:08:10.043Z,101070.44
2022-08-03T15:10:43.811Z,101072.69
2022-08-03T15:13:12.996Z,101067.06
2022-08-03T15:15:40.208Z,101065.41
2022-08-03T15:18:07.175Z,101058.44
2022-08-03T15:20:43.832Z,101064.72
2022-08-03T15:23:11.532Z,101062.50
2022-08-03T15:26:31.703Z,101063.97
2022-08-03T15:28:24.399Z,101052.97
2022-08-03T15:30:53.956Z,101058.91
2022-08-03T15:33:20.869Z,101055.38
2022-08-03T15:35:47.759Z,101058.34
2022-08-03T15:38:14.342Z,101054.50
2022-08-03T15:40:40.802Z,101048.78
2022-08-03T15:43:07.464Z,101047.59
2022-08-03T15:45:35.385Z,101045.94
2022-08-03T15:48:03.172Z,101050.13
2022-08-03T15:50:29.566Z,101045.56
2022-08-03T15:52:56.662Z,101050.19
2022-08-03T15:55:23.205Z,101051.53
2022-08-03T15:59:04.410Z,101044.94
2022-08-03T16:00:36.113Z,101038.84
2022-08-03T16:03:02.549Z,101039.06
2022-08-03T16:05:29.446Z,101032.75
2022-08-03T16:07:58.591Z,101035.28
2022-08-03T16:10:30.694Z,101034.16
2022-08-03T16:12:58.887Z,101025.22
2022-08-03T16:15:25.337Z,101028.31
2022-08-03T16:17:51.841Z,101027.19
2022-08-03T16:20:31.261Z,101030.56
2022-08-03T16:23:10.574Z,101024.75
2022-08-03T16:25:38.205Z,101025.66
2022-08-03T16:28:08.204Z,101024.53
2022-08-03T16:30:40.747Z,101027.88
2022-08-03T16:33:07.163Z,101032.13
2022-08-03T16:35:33.577Z,101031.31
2022-08-03T16:38:00.306Z,101025.75
2022-08-03T16:40:26.840Z,101023.81
2022-08-03T16:42:53.270Z,101019.03
2022-08-03T16:45:19.711Z,101014.84
2022-08-03T16:47:46.146Z,101020.47
2022-08-03T16:50:19.055Z,101024.94
2022-08-03T16:52:47.332Z,101021.31
2022-08-03T16:55:15.895Z,101014.91
2022-08-03T16:57:58.796Z,101022.44
2022-08-03T17:00:33.019Z,101015.50
2022-08-03T17:03:04.325Z,101008.00
2022-08-03T17:05:50.111Z,101014.38
2022-08-03T17:08:26.915Z,101016.59
2022-08-03T17:10:54.649Z,101010.19
2022-08-03T17:13:22.517Z,101013.03
2022-08-03T17:16:00.595Z,101007.72
2022-08-03T17:18:32.429Z,101014.97
2022-08-03T17:21:03.313Z,101008.88
2022-08-03T17:23:50.161Z,101014.69
2022-08-03T17:26:21.929Z,101010.84
2022-08-03T17:28:57.418Z,101011.38
2022-08-03T17:31:32.285Z,101014.44
2022-08-03T17:34:08.628Z,101008.06
2022-08-03T17:37:02.716Z,101016.41
2022-08-03T17:39:48.431Z,101010.28
2022-08-03T17:42:30.720Z,101009.47
2022-08-03T17:45:01.923Z,101017.53
2022-08-03T17:47:41.340Z,101010.03
2022-08-03T17:50:23.929Z,101007.81
2022-08-03T17:53:00.924Z,101009.47
2022-08-03T17:55:55.832Z,101006.97
2022-08-03T17:58:25.363Z,101012.50
2022-08-03T18:02:00.351Z,101010.84
2022-08-03T18:04:11.057Z,101015.84
2022-08-03T18:06:55.821Z,101014.16
2022-08-03T18:10:03.349Z,101012.50
2022-08-03T18:12:17.351Z,101009.44
2022-08-03T18:14:57.588Z,101012.22
2022-08-03T18:17:55.179Z,101012.75
2022-08-03T18:20:34.603Z,101012.75
2022-08-03T18:23:08.682Z,101011.34
2022-08-03T18:25:45.239Z,101013.84
2022-08-03T18:28:16.438Z,101018.84
2022-08-03T18:30:53.936Z,101017.38
2022-08-03T18:34:16.859Z,101014.63
2022-08-03T18:36:21.806Z,101014.84
2022-08-03T18:38:57.341Z,101014.53
2022-08-03T18:41:33.562Z,101018.69
2022-08-03T18:44:07.829Z,101016.75
2022-08-03T18:46:42.121Z,101012.25
2022-08-03T18:49:25.173Z,101012.22
2022-08-03T18:52:15.782Z,101010.84
2022-08-03T18:55:19.709Z,101020.25
2022-08-03T18:57:59.558Z,101019.63
2022-08-03T19:00:42.314Z,101020.72
2022-08-03T19:03:23.813Z,101019.53
2022-08-03T19:06:07.726Z,101014.81
2022-08-03T19:08:57.630Z,101017.50
2022-08-03T19:12:12.310Z,101018.03
2022-08-03T19:14:39.330Z,101018.53
2022-08-03T19:17:11.246Z,101013.75
2022-08-03T19:19:44.516Z,101023.16
2022-08-03T19:22:16.269Z,101019.84
2022-08-03T19:24:45.425Z,101019.81
2022-08-03T19:27:12.764Z,101019.44
2022-08-03T19:29:58.556Z,101027.69
2022-08-03T19:32:29.131Z,101028.25
2022-08-03T19:34:56.816Z,101028.00
2022-08-03T19:37:27.527Z,101033.44
2022-08-03T19:40:05.734Z,101033.69
2022-08-03T19:42:42.013Z,101037.75
2022-08-03T19:45:11.312Z,101036.59
2022-08-03T19:47:47.488Z,101040.44
2022-08-03T19:50:15.666Z,101031.81
2022-08-03T19:52:46.933Z,101035.09
2022-08-03T19:55:16.645Z,101033.69
2022-08-03T19:57:46.024Z,101023.41
2022-08-03T20:00:13.962Z,101026.13
2022-08-03T20:02:41.460Z,101034.44
2022-08-03T20:05:15.019Z,101036.78
2022-08-03T20:07:42.337Z,101035.09
2022-08-03T20:10:15.364Z,101035.84
2022-08-03T20:12:44.460Z,101035.53
2022-08-03T20:15:11.653Z,101038.78
2022-08-03T20:17:55.902Z,101035.66
2022-08-03T20:20:34.015Z,101039.75
2022-08-03T20:23:06.895Z,101032.56
2022-08-03T20:25:48.983Z,101026.22
2022-08-03T20:28:30.592Z,101028.34
2022-08-03T20:30:57.662Z,101032.97
2022-08-03T20:33:27.924Z,101022.38
2022-08-03T20:36:13.744Z,101016.25
2022-08-03T20:38:46.855Z,101026.41
2022-08-03T20:41:14.427Z,101029.91
2022-08-03T20:43:41.656Z,101027.16
2022-08-03T20:46:32.745Z,101022.47
2022-08-03T20:48:57.192Z,101019.97
2022-08-03T20:54:22.992Z,101017.09
2022-08-03T20:56:58.874Z,101013.84
2022-08-03T20:59:38.496Z,101010.50
2022-08-03T21:02:19.818Z,101007.91
2022-08-03T21:04:57.321Z,101012.09
2022-08-03T21:07:24.162Z,101012.09
2022-08-03T21:09:52.793Z,101011.09
2022-08-03T21:12:31.921Z,101007.59
2022-08-03T21:13:07.585Z,101019.56
2022-08-03T21:15:09.080Z,100997.06
2022-08-03T21:17:41.453Z,100996.41
2022-08-03T21:20:10.220Z,100999.75
2022-08-03T21:22:43.677Z,100994.94
2022-08-03T21:25:10.984Z,100994.72
2022-08-03T21:27:37.556Z,100997.53
2022-08-03T21:30:09.867Z,100993.69
2022-08-03T21:32:40.096Z,100985.91
2022-08-03T21:35:09.971Z,100993.94
2022-08-03T21:37:38.237Z,100996.03
2022-08-03T21:40:05.190Z,100992.28
2022-08-03T21:42:31.619Z,100988.59
2022-08-03T21:44:58.171Z,100988.25
2022-08-03T21:47:25.407Z,100981.28
2022-08-03T21:50:06.227Z,100985.50
2022-08-03T21:52:40.822Z,100980.97
2022-08-03T21:55:07.723Z,100977.13
2022-08-03T21:57:38.423Z,100982.75
2022-08-03T22:00:16.998Z,100983.16
2022-08-03T22:02:54.814Z,100975.44
2022-08-03T22:05:42.402Z,100978.28
2022-08-03T22:08:09.493Z,100984.84
2022-08-03T22:10:36.760Z,100971.25
2022-08-03T22:13:03.369Z,100977.94
2022-08-03T22:15:30.608Z,100979.94
2022-08-03T22:17:57.562Z,100974.34
2022-08-03T22:20:25.029Z,100971.84
2022-08-03T22:22:57.122Z,100975.94
2022-08-03T22:25:31.941Z,100978.34
2022-08-03T22:28:01.569Z,100981.47
2022-08-03T22:30:28.953Z,100982.06
2022-08-03T22:32:56.274Z,100971.78
2022-08-03T22:35:25.634Z,100969.88
2022-08-03T22:37:54.504Z,100973.13
2022-08-03T22:40:21.405Z,100962.97
2022-08-03T22:42:51.331Z,100967.59
2022-08-03T22:46:07.946Z,100960.47
2022-08-03T22:48:08.354Z,100962.97
2022-08-03T22:50:35.030Z,100959.53
2022-08-03T22:53:01.786Z,100965.09
2022-08-03T22:55:28.304Z,100961.31
2022-08-03T22:57:56.225Z,100954.31
2022-08-03T23:00:23.655Z,100950.56
2022-08-03T23:02:51.797Z,100958.59
2022-08-03T23:06:01.113Z,100959.56
2022-08-03T23:08:14.580Z,100954.22
2022-08-03T23:10:46.847Z,100962.00
2022-08-03T23:13:16.506Z,100950.88
2022-08-03T23:15:56.350Z,100952.63
2022-08-03T23:18:24.430Z,100946.44
2022-08-03T23:20:57.694Z,100952.34
2022-08-03T23:23:24.448Z,100943.97
2022-08-03T23:25:51.896Z,100948.16
2022-08-03T23:28:19.183Z,100948.28
2022-08-03T23:30:46.817Z,100950.59
2022-08-03T23:33:14.883Z,100945.06
2022-08-03T23:36:29.846Z,100944.00
2022-08-03T23:38:44.072Z,100953.00
2022-08-03T23:41:11.464Z,100942.56
2022-08-03T23:43:50.738Z,100943.53
2022-08-03T23:46:20.443Z,100945.47
2022-08-03T23:48:46.836Z,100938.53
2022-08-03T23:51:23.437Z,100930.75
2022-08-03T23:54:03.166Z,100929.91
2022-08-03T23:56:48.259Z,100930.13
2022-08-03T23:59:21.690Z,100925.94
